sensor_id;sensor_type;location;lat;lon;timestamp;temperature;humidity
26326;DHT22;14032;52.510;7.342;2023-03-12T00:02:00;0.60;99.90
26326;DHT22;14032;52.510;7.342;2023-03-12T00:04:26;0.60;99.90
26326;DHT22;14032;52.510;7.342;2023-03-12T00:06:51;0.50;99.90
26326;DHT22;14032;52.510;7.342;2023-03-12T00:09:17;0.50;99.90
26326;DHT22;14032;52.510;7.342;2023-03-12T00:11:42;0.50;99.90
26326;DHT22;14032;52.510;7.342;2023-03-12T00:14:08;0.50;99.90
26326;DHT22;14032;52.510;7.342;2023-03-12T00:16:33;0.50;99.90
26326;DHT22;14032;52.510;7.342;2023-03-12T00:18:59;0.40;99.90
26326;DHT22;14032;52.510;7.342;2023-03-12T00:21:24;0.40;99.90
26326;DHT22;14032;52.510;7.342;2023-03-12T00:23:50;0.50;99.90
26326;DHT22;14032;52.510;7.342;2023-03-12T00:26:16;0.40;99.90
26326;DHT22;14032;52.510;7.342;2023-03-12T00:28:42;0.50;99.90
26326;DHT22;14032;52.510;7.342;2023-03-12T00:33:42;0.50;99.90
26326;DHT22;14032;52.510;7.342;2023-03-12T00:36:08;0.50;99.90
26326;DHT22;14032;52.510;7.342;2023-03-12T00:38:34;0.50;99.90
26326;DHT22;14032;52.510;7.342;2023-03-12T00:40:59;0.50;99.90
26326;DHT22;14032;52.510;7.342;2023-03-12T00:43:25;0.50;99.90
26326;DHT22;14032;52.510;7.342;2023-03-12T00:45:50;0.50;99.90
26326;DHT22;14032;52.510;7.342;2023-03-12T00:48:15;0.50;99.90
26326;DHT22;14032;52.510;7.342;2023-03-12T00:50:41;0.50;99.90
26326;DHT22;14032;52.510;7.342;2023-03-12T00:53:06;0.50;99.90
26326;DHT22;14032;52.510;7.342;2023-03-12T00:55:32;0.50;99.90
26326;DHT22;14032;52.510;7.342;2023-03-12T00:57:57;0.50;99.90
26326;DHT22;14032;52.510;7.342;2023-03-12T01:00:23;0.50;99.90
26326;DHT22;14032;52.510;7.342;2023-03-12T01:02:49;0.50;99.90
26326;DHT22;14032;52.510;7.342;2023-03-12T01:05:14;0.50;99.90
26326;DHT22;14032;52.510;7.342;2023-03-12T01:07:40;0.40;99.90
26326;DHT22;14032;52.510;7.342;2023-03-12T01:10:06;0.40;99.90
26326;DHT22;14032;52.510;7.342;2023-03-12T01:12:32;0.40;99.90
26326;DHT22;14032;52.510;7.342;2023-03-12T01:14:57;0.40;99.90
26326;DHT22;14032;52.510;7.342;2023-03-12T01:17:23;0.40;99.90
26326;DHT22;14032;52.510;7.342;2023-03-12T01:19:48;0.40;99.90
26326;DHT22;14032;52.510;7.342;2023-03-12T01:22:14;0.40;99.90
26326;DHT22;14032;52.510;7.342;2023-03-12T01:24:39;0.40;99.90
26326;DHT22;14032;52.510;7.342;2023-03-12T01:27:05;0.40;99.90
26326;DHT22;14032;52.510;7.342;2023-03-12T01:29:30;0.40;99.90
26326;DHT22;14032;52.510;7.342;2023-03-12T01:31:56;0.40;99.90
26326;DHT22;14032;52.510;7.342;2023-03-12T01:34:21;0.40;99.90
26326;DHT22;14032;52.510;7.342;2023-03-12T01:36:47;0.40;99.90
26326;DHT22;14032;52.510;7.342;2023-03-12T01:39:13;0.40;99.90
26326;DHT22;14032;52.510;7.342;2023-03-12T01:41:38;0.40;99.90
26326;DHT22;14032;52.510;7.342;2023-03-12T01:44:05;0.40;99.90
26326;DHT22;14032;52.510;7.342;2023-03-12T01:46:34;0.40;99.90
26326;DHT22;14032;52.510;7.342;2023-03-12T01:49:05;0.40;99.90
26326;DHT22;14032;52.510;7.342;2023-03-12T01:51:37;0.40;99.90
26326;DHT22;14032;52.510;7.342;2023-03-12T01:54:04;0.40;99.90
26326;DHT22;14032;52.510;7.342;2023-03-12T01:56:31;0.40;99.90
26326;DHT22;14032;52.510;7.342;2023-03-12T01:58:59;0.40;99.90
26326;DHT22;14032;52.510;7.342;2023-03-12T02:01:26;0.40;99.90
26326;DHT22;14032;52.510;7.342;2023-03-12T02:03:52;0.40;99.90
26326;DHT22;14032;52.510;7.342;2023-03-12T02:06:20;0.40;99.90
26326;DHT22;14032;52.510;7.342;2023-03-12T02:08:47;0.30;99.90
26326;DHT22;14032;52.510;7.342;2023-03-12T02:11:13;0.30;99.90
26326;DHT22;14032;52.510;7.342;2023-03-12T02:13:38;0.30;99.90
26326;DHT22;14032;52.510;7.342;2023-03-12T02:16:04;0.30;99.90
26326;DHT22;14032;52.510;7.342;2023-03-12T02:18:31;0.40;99.90
26326;DHT22;14032;52.510;7.342;2023-03-12T02:26:05;0.40;99.90
26326;DHT22;14032;52.510;7.342;2023-03-12T02:28:31;0.40;99.90
26326;DHT22;14032;52.510;7.342;2023-03-12T02:30:59;0.40;99.90
26326;DHT22;14032;52.510;7.342;2023-03-12T02:33:26;0.40;99.90
26326;DHT22;14032;52.510;7.342;2023-03-12T02:35:52;0.40;99.90
26326;DHT22;14032;52.510;7.342;2023-03-12T02:41:16;0.40;99.90
26326;DHT22;14032;52.510;7.342;2023-03-12T02:44:04;0.40;99.90
26326;DHT22;14032;52.510;7.342;2023-03-12T02:46:29;0.40;99.90
26326;DHT22;14032;52.510;7.342;2023-03-12T02:48:57;0.50;99.90
26326;DHT22;14032;52.510;7.342;2023-03-12T02:51:23;0.50;99.90
26326;DHT22;14032;52.510;7.342;2023-03-12T02:53:49;0.50;99.90
26326;DHT22;14032;52.510;7.342;2023-03-12T02:56:22;0.50;99.90
26326;DHT22;14032;52.510;7.342;2023-03-12T02:58:48;0.50;99.90
26326;DHT22;14032;52.510;7.342;2023-03-12T03:01:14;0.50;99.90
26326;DHT22;14032;52.510;7.342;2023-03-12T03:03:39;0.50;99.90
26326;DHT22;14032;52.510;7.342;2023-03-12T03:06:05;0.50;99.90
26326;DHT22;14032;52.510;7.342;2023-03-12T03:08:30;0.50;99.90
26326;DHT22;14032;52.510;7.342;2023-03-12T03:10:55;0.50;99.90
26326;DHT22;14032;52.510;7.342;2023-03-12T03:13:21;0.50;99.90
26326;DHT22;14032;52.510;7.342;2023-03-12T03:15:46;0.50;99.90
26326;DHT22;14032;52.510;7.342;2023-03-12T03:18:12;0.50;99.90
26326;DHT22;14032;52.510;7.342;2023-03-12T03:20:37;0.40;99.90
26326;DHT22;14032;52.510;7.342;2023-03-12T03:23:03;0.40;99.90
26326;DHT22;14032;52.510;7.342;2023-03-12T03:25:28;0.40;99.90
26326;DHT22;14032;52.510;7.342;2023-03-12T03:27:54;0.40;99.90
26326;DHT22;14032;52.510;7.342;2023-03-12T03:30:20;0.40;99.90
26326;DHT22;14032;52.510;7.342;2023-03-12T03:32:46;0.30;99.90
26326;DHT22;14032;52.510;7.342;2023-03-12T03:35:12;0.30;99.90
26326;DHT22;14032;52.510;7.342;2023-03-12T03:37:37;0.30;99.90
26326;DHT22;14032;52.510;7.342;2023-03-12T03:40:03;0.30;99.90
26326;DHT22;14032;52.510;7.342;2023-03-12T03:42:29;0.30;99.90
26326;DHT22;14032;52.510;7.342;2023-03-12T03:44:55;0.30;99.90
26326;DHT22;14032;52.510;7.342;2023-03-12T03:47:20;0.30;99.90
26326;DHT22;14032;52.510;7.342;2023-03-12T03:49:46;0.20;99.90
26326;DHT22;14032;52.510;7.342;2023-03-12T03:52:11;0.30;99.90
26326;DHT22;14032;52.510;7.342;2023-03-12T03:54:37;0.30;99.90
26326;DHT22;14032;52.510;7.342;2023-03-12T03:57:02;0.20;99.90
26326;DHT22;14032;52.510;7.342;2023-03-12T03:59:28;0.30;99.90
26326;DHT22;14032;52.510;7.342;2023-03-12T04:01:53;0.20;99.90
26326;DHT22;14032;52.510;7.342;2023-03-12T04:04:20;0.30;99.90
26326;DHT22;14032;52.510;7.342;2023-03-12T04:06:45;0.30;99.90
26326;DHT22;14032;52.510;7.342;2023-03-12T04:09:11;0.30;99.90
26326;DHT22;14032;52.510;7.342;2023-03-12T04:11:36;0.30;99.90
26326;DHT22;14032;52.510;7.342;2023-03-12T04:14:02;0.30;99.90
26326;DHT22;14032;52.510;7.342;2023-03-12T04:16:28;0.30;99.90
26326;DHT22;14032;52.510;7.342;2023-03-12T04:18:53;0.30;99.90
26326;DHT22;14032;52.510;7.342;2023-03-12T04:21:19;0.30;99.90
26326;DHT22;14032;52.510;7.342;2023-03-12T04:23:44;0.30;99.90
26326;DHT22;14032;52.510;7.342;2023-03-12T04:26:10;0.30;99.90
26326;DHT22;14032;52.510;7.342;2023-03-12T04:28:36;0.30;99.90
26326;DHT22;14032;52.510;7.342;2023-03-12T04:31:02;0.30;99.90
26326;DHT22;14032;52.510;7.342;2023-03-12T04:33:29;0.40;99.90
26326;DHT22;14032;52.510;7.342;2023-03-12T04:35:55;0.40;99.90
26326;DHT22;14032;52.510;7.342;2023-03-12T04:38:21;0.40;99.90
26326;DHT22;14032;52.510;7.342;2023-03-12T04:40:55;0.40;99.90
26326;DHT22;14032;52.510;7.342;2023-03-12T04:43:21;0.40;99.90
26326;DHT22;14032;52.510;7.342;2023-03-12T04:45:47;0.40;99.90
26326;DHT22;14032;52.510;7.342;2023-03-12T04:48:13;0.40;99.90
26326;DHT22;14032;52.510;7.342;2023-03-12T04:50:38;0.40;99.90
26326;DHT22;14032;52.510;7.342;2023-03-12T04:53:04;0.30;99.90
26326;DHT22;14032;52.510;7.342;2023-03-12T04:55:29;0.40;99.90
26326;DHT22;14032;52.510;7.342;2023-03-12T04:57:55;0.30;99.90
26326;DHT22;14032;52.510;7.342;2023-03-12T05:00:20;0.30;99.90
26326;DHT22;14032;52.510;7.342;2023-03-12T05:02:46;0.30;99.90
26326;DHT22;14032;52.510;7.342;2023-03-12T05:05:11;0.30;99.90
26326;DHT22;14032;52.510;7.342;2023-03-12T05:07:37;0.30;99.90
26326;DHT22;14032;52.510;7.342;2023-03-12T05:10:02;0.30;99.90
26326;DHT22;14032;52.510;7.342;2023-03-12T05:12:28;0.30;99.90
26326;DHT22;14032;52.510;7.342;2023-03-12T05:14:54;0.30;99.90
26326;DHT22;14032;52.510;7.342;2023-03-12T05:17:19;0.30;99.90
26326;DHT22;14032;52.510;7.342;2023-03-12T05:30:04;0.40;99.90
26326;DHT22;14032;52.510;7.342;2023-03-12T05:32:30;0.40;99.90
26326;DHT22;14032;52.510;7.342;2023-03-12T05:34:56;0.40;99.90
26326;DHT22;14032;52.510;7.342;2023-03-12T05:37:21;0.40;99.90
26326;DHT22;14032;52.510;7.342;2023-03-12T05:39:47;0.50;99.90
26326;DHT22;14032;52.510;7.342;2023-03-12T05:42:12;0.50;99.90
26326;DHT22;14032;52.510;7.342;2023-03-12T05:44:38;0.50;99.90
26326;DHT22;14032;52.510;7.342;2023-03-12T05:47:04;0.50;99.90
26326;DHT22;14032;52.510;7.342;2023-03-12T05:49:29;0.50;99.90
26326;DHT22;14032;52.510;7.342;2023-03-12T05:51:55;0.60;99.90
26326;DHT22;14032;52.510;7.342;2023-03-12T05:54:21;0.60;99.90
26326;DHT22;14032;52.510;7.342;2023-03-12T05:56:46;0.60;99.90
26326;DHT22;14032;52.510;7.342;2023-03-12T05:59:12;0.60;99.90
26326;DHT22;14032;52.510;7.342;2023-03-12T06:01:38;0.60;99.90
26326;DHT22;14032;52.510;7.342;2023-03-12T06:04:04;0.60;99.90
26326;DHT22;14032;52.510;7.342;2023-03-12T06:06:30;0.70;99.90
26326;DHT22;14032;52.510;7.342;2023-03-12T06:08:56;0.70;99.90
26326;DHT22;14032;52.510;7.342;2023-03-12T06:11:21;0.70;99.90
26326;DHT22;14032;52.510;7.342;2023-03-12T06:13:47;0.70;99.90
26326;DHT22;14032;52.510;7.342;2023-03-12T06:16:20;0.70;99.90
26326;DHT22;14032;52.510;7.342;2023-03-12T06:18:46;0.70;99.90
26326;DHT22;14032;52.510;7.342;2023-03-12T06:21:16;0.70;99.90
26326;DHT22;14032;52.510;7.342;2023-03-12T06:23:41;0.70;99.90
26326;DHT22;14032;52.510;7.342;2023-03-12T06:26:07;0.80;99.90
26326;DHT22;14032;52.510;7.342;2023-03-12T06:28:33;0.80;99.90
26326;DHT22;14032;52.510;7.342;2023-03-12T06:30:59;0.90;99.90
26326;DHT22;14032;52.510;7.342;2023-03-12T06:33:24;0.90;99.90
26326;DHT22;14032;52.510;7.342;2023-03-12T06:35:56;0.90;99.90
26326;DHT22;14032;52.510;7.342;2023-03-12T06:38:23;0.90;99.90
26326;DHT22;14032;52.510;7.342;2023-03-12T06:40:52;0.90;99.90
26326;DHT22;14032;52.510;7.342;2023-03-12T06:43:17;0.90;99.90
26326;DHT22;14032;52.510;7.342;2023-03-12T06:45:43;0.90;99.90
26326;DHT22;14032;52.510;7.342;2023-03-12T06:48:08;1.00;99.90
26326;DHT22;14032;52.510;7.342;2023-03-12T06:50:34;1.00;99.90
26326;DHT22;14032;52.510;7.342;2023-03-12T06:53:00;1.00;99.90
26326;DHT22;14032;52.510;7.342;2023-03-12T06:55:25;1.00;99.90
26326;DHT22;14032;52.510;7.342;2023-03-12T06:57:50;1.00;99.90
26326;DHT22;14032;52.510;7.342;2023-03-12T07:00:16;1.10;99.90
26326;DHT22;14032;52.510;7.342;2023-03-12T07:02:45;1.10;99.90
26326;DHT22;14032;52.510;7.342;2023-03-12T07:05:10;1.10;99.90
26326;DHT22;14032;52.510;7.342;2023-03-12T07:07:35;1.10;99.90
26326;DHT22;14032;52.510;7.342;2023-03-12T07:10:01;1.10;99.90
26326;DHT22;14032;52.510;7.342;2023-03-12T07:12:26;1.10;99.90
26326;DHT22;14032;52.510;7.342;2023-03-12T07:14:52;1.10;99.90
26326;DHT22;14032;52.510;7.342;2023-03-12T07:17:17;1.20;99.90
26326;DHT22;14032;52.510;7.342;2023-03-12T07:19:43;1.20;99.90
26326;DHT22;14032;52.510;7.342;2023-03-12T07:22:08;1.30;99.90
26326;DHT22;14032;52.510;7.342;2023-03-12T07:24:34;1.40;99.90
26326;DHT22;14032;52.510;7.342;2023-03-12T07:26:59;1.40;99.90
26326;DHT22;14032;52.510;7.342;2023-03-12T07:29:25;1.40;99.90
26326;DHT22;14032;52.510;7.342;2023-03-12T07:31:50;1.40;99.90
26326;DHT22;14032;52.510;7.342;2023-03-12T07:34:16;1.40;99.90
26326;DHT22;14032;52.510;7.342;2023-03-12T07:36:41;1.40;99.90
26326;DHT22;14032;52.510;7.342;2023-03-12T07:39:07;1.40;99.90
26326;DHT22;14032;52.510;7.342;2023-03-12T07:41:33;1.50;99.90
26326;DHT22;14032;52.510;7.342;2023-03-12T07:44:01;1.40;99.90
26326;DHT22;14032;52.510;7.342;2023-03-12T07:46:27;1.50;99.90
26326;DHT22;14032;52.510;7.342;2023-03-12T07:48:52;1.50;99.90
26326;DHT22;14032;52.510;7.342;2023-03-12T07:51:18;1.50;99.90
26326;DHT22;14032;52.510;7.342;2023-03-12T07:53:43;1.50;99.90
26326;DHT22;14032;52.510;7.342;2023-03-12T07:56:08;1.60;99.90
26326;DHT22;14032;52.510;7.342;2023-03-12T07:58:34;1.60;99.90
26326;DHT22;14032;52.510;7.342;2023-03-12T08:01:00;1.60;99.90
26326;DHT22;14032;52.510;7.342;2023-03-12T08:03:26;1.60;99.90
26326;DHT22;14032;52.510;7.342;2023-03-12T08:05:55;1.60;99.90
26326;DHT22;14032;52.510;7.342;2023-03-12T08:08:23;1.70;99.90
26326;DHT22;14032;52.510;7.342;2023-03-12T08:10:48;1.70;99.90
26326;DHT22;14032;52.510;7.342;2023-03-12T08:13:14;1.70;99.90
26326;DHT22;14032;52.510;7.342;2023-03-12T08:15:40;1.70;99.90
26326;DHT22;14032;52.510;7.342;2023-03-12T08:18:05;1.70;99.90
26326;DHT22;14032;52.510;7.342;2023-03-12T08:20:32;1.60;99.90
26326;DHT22;14032;52.510;7.342;2023-03-12T08:22:57;1.60;99.90
26326;DHT22;14032;52.510;7.342;2023-03-12T08:25:24;1.60;99.90
26326;DHT22;14032;52.510;7.342;2023-03-12T08:27:50;1.60;99.90
26326;DHT22;14032;52.510;7.342;2023-03-12T08:30:15;1.60;99.90
26326;DHT22;14032;52.510;7.342;2023-03-12T08:32:41;1.60;99.90
26326;DHT22;14032;52.510;7.342;2023-03-12T08:35:06;1.60;99.90
26326;DHT22;14032;52.510;7.342;2023-03-12T08:37:34;1.60;99.90
26326;DHT22;14032;52.510;7.342;2023-03-12T08:40:00;1.60;99.90
26326;DHT22;14032;52.510;7.342;2023-03-12T08:42:25;1.60;99.90
26326;DHT22;14032;52.510;7.342;2023-03-12T08:44:54;1.60;99.90
26326;DHT22;14032;52.510;7.342;2023-03-12T08:47:20;1.60;99.90
26326;DHT22;14032;52.510;7.342;2023-03-12T08:49:46;1.50;99.90
26326;DHT22;14032;52.510;7.342;2023-03-12T08:52:11;1.50;99.90
26326;DHT22;14032;52.510;7.342;2023-03-12T08:54:37;1.50;99.90
26326;DHT22;14032;52.510;7.342;2023-03-12T08:57:02;1.50;99.90
26326;DHT22;14032;52.510;7.342;2023-03-12T08:59:28;1.50;99.90
26326;DHT22;14032;52.510;7.342;2023-03-12T09:01:53;1.50;99.90
26326;DHT22;14032;52.510;7.342;2023-03-12T09:04:19;1.50;99.90
26326;DHT22;14032;52.510;7.342;2023-03-12T09:06:44;1.50;99.90
26326;DHT22;14032;52.510;7.342;2023-03-12T09:09:10;1.50;99.90
26326;DHT22;14032;52.510;7.342;2023-03-12T09:11:36;1.50;99.90
26326;DHT22;14032;52.510;7.342;2023-03-12T09:14:03;1.50;99.90
26326;DHT22;14032;52.510;7.342;2023-03-12T09:16:29;1.50;99.90
26326;DHT22;14032;52.510;7.342;2023-03-12T09:18:54;1.50;99.90
26326;DHT22;14032;52.510;7.342;2023-03-12T09:21:20;1.50;99.90
26326;DHT22;14032;52.510;7.342;2023-03-12T09:23:46;1.50;99.90
26326;DHT22;14032;52.510;7.342;2023-03-12T09:26:12;1.60;99.90
26326;DHT22;14032;52.510;7.342;2023-03-12T09:28:38;1.60;99.90
26326;DHT22;14032;52.510;7.342;2023-03-12T09:31:03;1.60;99.90
26326;DHT22;14032;52.510;7.342;2023-03-12T09:33:29;1.70;99.90
26326;DHT22;14032;52.510;7.342;2023-03-12T09:35:56;1.80;99.90
26326;DHT22;14032;52.510;7.342;2023-03-12T09:38:21;1.90;99.90
26326;DHT22;14032;52.510;7.342;2023-03-12T09:40:47;2.00;99.90
26326;DHT22;14032;52.510;7.342;2023-03-12T09:43:17;2.00;99.90
26326;DHT22;14032;52.510;7.342;2023-03-12T09:45:45;2.00;99.90
26326;DHT22;14032;52.510;7.342;2023-03-12T09:48:15;2.00;99.90
26326;DHT22;14032;52.510;7.342;2023-03-12T09:50:42;1.90;99.90
26326;DHT22;14032;52.510;7.342;2023-03-12T09:53:25;1.90;99.90
26326;DHT22;14032;52.510;7.342;2023-03-12T09:55:52;1.90;99.90
26326;DHT22;14032;52.510;7.342;2023-03-12T10:00:57;2.00;99.90
26326;DHT22;14032;52.510;7.342;2023-03-12T10:03:31;2.00;99.90
26326;DHT22;14032;52.510;7.342;2023-03-12T10:06:12;2.00;99.90
26326;DHT22;14032;52.510;7.342;2023-03-12T10:11:08;2.00;99.90
26326;DHT22;14032;52.510;7.342;2023-03-12T10:13:52;2.00;99.90
26326;DHT22;14032;52.510;7.342;2023-03-12T10:16:29;2.00;99.90
26326;DHT22;14032;52.510;7.342;2023-03-12T10:26:44;2.00;99.90
26326;DHT22;14032;52.510;7.342;2023-03-12T10:29:19;2.00;99.90
26326;DHT22;14032;52.510;7.342;2023-03-12T10:31:51;2.00;99.90
26326;DHT22;14032;52.510;7.342;2023-03-12T10:34:23;1.90;99.90
26326;DHT22;14032;52.510;7.342;2023-03-12T10:36:51;2.00;99.90
26326;DHT22;14032;52.510;7.342;2023-03-12T10:39:19;1.90;99.90
26326;DHT22;14032;52.510;7.342;2023-03-12T10:41:46;2.00;99.90
26326;DHT22;14032;52.510;7.342;2023-03-12T10:44:22;2.00;99.90
26326;DHT22;14032;52.510;7.342;2023-03-12T10:49:33;2.10;99.90
26326;DHT22;14032;52.510;7.342;2023-03-12T10:52:00;2.10;99.90
26326;DHT22;14032;52.510;7.342;2023-03-12T10:54:27;2.20;99.90
26326;DHT22;14032;52.510;7.342;2023-03-12T10:56:52;2.20;99.90
26326;DHT22;14032;52.510;7.342;2023-03-12T10:59:22;2.20;99.90
26326;DHT22;14032;52.510;7.342;2023-03-12T11:01:50;2.20;99.90
26326;DHT22;14032;52.510;7.342;2023-03-12T11:04:17;2.20;99.90
26326;DHT22;14032;52.510;7.342;2023-03-12T11:06:45;2.30;99.90
26326;DHT22;14032;52.510;7.342;2023-03-12T11:09:26;2.30;99.90
26326;DHT22;14032;52.510;7.342;2023-03-12T11:11:51;2.30;99.90
26326;DHT22;14032;52.510;7.342;2023-03-12T11:14:18;2.40;99.90
26326;DHT22;14032;52.510;7.342;2023-03-12T11:16:44;2.40;99.90
26326;DHT22;14032;52.510;7.342;2023-03-12T11:19:14;2.40;99.90
26326;DHT22;14032;52.510;7.342;2023-03-12T11:21:53;2.40;99.90
26326;DHT22;14032;52.510;7.342;2023-03-12T11:24:19;2.50;99.90
26326;DHT22;14032;52.510;7.342;2023-03-12T11:26:52;2.50;99.90
26326;DHT22;14032;52.510;7.342;2023-03-12T11:29:25;2.50;99.90
26326;DHT22;14032;52.510;7.342;2023-03-12T11:31:56;2.50;99.90
26326;DHT22;14032;52.510;7.342;2023-03-12T11:34:24;2.60;99.90
26326;DHT22;14032;52.510;7.342;2023-03-12T11:37:52;2.70;99.90
26326;DHT22;14032;52.510;7.342;2023-03-12T11:42:15;2.80;99.90
26326;DHT22;14032;52.510;7.342;2023-03-12T12:21:36;3.70;99.90
26326;DHT22;14032;52.510;7.342;2023-03-12T12:26:43;3.90;99.90
26326;DHT22;14032;52.510;7.342;2023-03-12T12:29:14;3.90;99.90
26326;DHT22;14032;52.510;7.342;2023-03-12T12:31:54;4.00;99.90
26326;DHT22;14032;52.510;7.342;2023-03-12T12:34:34;4.10;99.90
26326;DHT22;14032;52.510;7.342;2023-03-12T12:39:49;4.20;99.90
26326;DHT22;14032;52.510;7.342;2023-03-12T12:42:19;4.30;99.90
26326;DHT22;14032;52.510;7.342;2023-03-12T12:44:48;4.40;99.90
26326;DHT22;14032;52.510;7.342;2023-03-12T12:47:15;4.50;99.90
26326;DHT22;14032;52.510;7.342;2023-03-12T12:49:44;4.50;99.90
26326;DHT22;14032;52.510;7.342;2023-03-12T12:52:12;4.50;99.90
26326;DHT22;14032;52.510;7.342;2023-03-12T13:02:16;4.70;99.90
26326;DHT22;14032;52.510;7.342;2023-03-12T13:04:43;4.80;99.90
26326;DHT22;14032;52.510;7.342;2023-03-12T13:09:38;4.80;99.90
26326;DHT22;14032;52.510;7.342;2023-03-12T13:12:05;4.90;99.90
26326;DHT22;14032;52.510;7.342;2023-03-12T13:14:35;5.00;99.90
26326;DHT22;14032;52.510;7.342;2023-03-12T13:17:22;5.10;99.90
26326;DHT22;14032;52.510;7.342;2023-03-12T13:19:50;5.10;99.90
26326;DHT22;14032;52.510;7.342;2023-03-12T13:22:28;5.30;99.90
26326;DHT22;14032;52.510;7.342;2023-03-12T13:25:31;5.30;99.90
26326;DHT22;14032;52.510;7.342;2023-03-12T13:27:47;5.40;99.90
26326;DHT22;14032;52.510;7.342;2023-03-12T13:30:54;5.50;99.90
26326;DHT22;14032;52.510;7.342;2023-03-12T13:33:13;5.60;99.90
26326;DHT22;14032;52.510;7.342;2023-03-12T13:35:39;5.70;99.90
26326;DHT22;14032;52.510;7.342;2023-03-12T13:38:11;5.80;99.90
26326;DHT22;14032;52.510;7.342;2023-03-12T13:40:56;5.90;99.90
26326;DHT22;14032;52.510;7.342;2023-03-12T13:46:04;5.90;99.90
26326;DHT22;14032;52.510;7.342;2023-03-12T13:48:30;6.00;99.90
26326;DHT22;14032;52.510;7.342;2023-03-12T13:50:57;6.00;99.90
26326;DHT22;14032;52.510;7.342;2023-03-12T13:53:34;6.10;99.90
26326;DHT22;14032;52.510;7.342;2023-03-12T13:56:05;6.10;99.90
26326;DHT22;14032;52.510;7.342;2023-03-12T13:58:31;6.10;99.90
26326;DHT22;14032;52.510;7.342;2023-03-12T14:01:03;6.10;99.90
26326;DHT22;14032;52.510;7.342;2023-03-12T14:03:31;6.10;99.90
26326;DHT22;14032;52.510;7.342;2023-03-12T14:06:08;6.10;99.90
26326;DHT22;14032;52.510;7.342;2023-03-12T14:16:42;6.10;99.90
26326;DHT22;14032;52.510;7.342;2023-03-12T14:19:13;6.10;99.90
26326;DHT22;14032;52.510;7.342;2023-03-12T14:21:40;6.20;99.90
26326;DHT22;14032;52.510;7.342;2023-03-12T14:24:19;6.30;99.90
26326;DHT22;14032;52.510;7.342;2023-03-12T14:26:46;6.30;99.90
26326;DHT22;14032;52.510;7.342;2023-03-12T14:29:20;6.40;99.90
26326;DHT22;14032;52.510;7.342;2023-03-12T14:31:47;6.40;99.90
26326;DHT22;14032;52.510;7.342;2023-03-12T14:34:16;6.50;99.90
26326;DHT22;14032;52.510;7.342;2023-03-12T14:36:58;6.50;99.90
26326;DHT22;14032;52.510;7.342;2023-03-12T14:41:54;6.60;99.90
26326;DHT22;14032;52.510;7.342;2023-03-12T14:44:22;6.70;99.90
26326;DHT22;14032;52.510;7.342;2023-03-12T14:49:43;6.70;99.90
26326;DHT22;14032;52.510;7.342;2023-03-12T14:52:10;6.80;99.90
26326;DHT22;14032;52.510;7.342;2023-03-12T14:54:36;6.70;99.90
26326;DHT22;14032;52.510;7.342;2023-03-12T14:57:04;6.80;99.90
26326;DHT22;14032;52.510;7.342;2023-03-12T14:59:31;6.80;99.90
26326;DHT22;14032;52.510;7.342;2023-03-12T15:02:18;6.90;99.90
26326;DHT22;14032;52.510;7.342;2023-03-12T15:04:42;7.00;99.90
26326;DHT22;14032;52.510;7.342;2023-03-12T15:07:08;7.00;99.90
26326;DHT22;14032;52.510;7.342;2023-03-12T15:09:35;7.10;99.90
26326;DHT22;14032;52.510;7.342;2023-03-12T15:12:02;7.10;99.90
26326;DHT22;14032;52.510;7.342;2023-03-12T15:14:29;7.20;99.90
26326;DHT22;14032;52.510;7.342;2023-03-12T15:16:56;7.20;99.90
26326;DHT22;14032;52.510;7.342;2023-03-12T15:19:25;7.30;99.90
26326;DHT22;14032;52.510;7.342;2023-03-12T15:21:52;7.30;99.90
26326;DHT22;14032;52.510;7.342;2023-03-12T15:24:17;7.40;99.90
26326;DHT22;14032;52.510;7.342;2023-03-12T15:26:43;7.40;99.90
26326;DHT22;14032;52.510;7.342;2023-03-12T15:31:42;7.50;99.90
26326;DHT22;14032;52.510;7.342;2023-03-12T15:34:09;7.50;99.90
26326;DHT22;14032;52.510;7.342;2023-03-12T15:36:34;7.60;99.90
26326;DHT22;14032;52.510;7.342;2023-03-12T15:39:02;7.70;99.90
26326;DHT22;14032;52.510;7.342;2023-03-12T15:41:45;7.70;99.90
26326;DHT22;14032;52.510;7.342;2023-03-12T15:44:23;7.70;99.90
26326;DHT22;14032;52.510;7.342;2023-03-12T15:46:51;7.80;99.90
26326;DHT22;14032;52.510;7.342;2023-03-12T15:49:24;7.80;99.90
26326;DHT22;14032;52.510;7.342;2023-03-12T15:52:23;7.80;99.90
26326;DHT22;14032;52.510;7.342;2023-03-12T15:57:50;7.90;99.90
26326;DHT22;14032;52.510;7.342;2023-03-12T16:00:17;7.90;99.90
26326;DHT22;14032;52.510;7.342;2023-03-12T16:05:15;7.90;99.90
26326;DHT22;14032;52.510;7.342;2023-03-12T16:07:40;7.90;99.90
26326;DHT22;14032;52.510;7.342;2023-03-12T16:10:08;7.90;99.90
26326;DHT22;14032;52.510;7.342;2023-03-12T16:12:36;7.90;99.90
26326;DHT22;14032;52.510;7.342;2023-03-12T16:15:02;7.90;99.90
26326;DHT22;14032;52.510;7.342;2023-03-12T16:17:28;8.00;99.90
26326;DHT22;14032;52.510;7.342;2023-03-12T16:19:53;8.00;99.90
26326;DHT22;14032;52.510;7.342;2023-03-12T16:22:18;8.00;99.90
26326;DHT22;14032;52.510;7.342;2023-03-12T16:24:46;8.00;99.90
26326;DHT22;14032;52.510;7.342;2023-03-12T16:27:12;7.90;99.90
26326;DHT22;14032;52.510;7.342;2023-03-12T16:29:39;8.00;99.90
26326;DHT22;14032;52.510;7.342;2023-03-12T16:32:08;8.00;99.90
26326;DHT22;14032;52.510;7.342;2023-03-12T16:34:34;8.00;99.90
26326;DHT22;14032;52.510;7.342;2023-03-12T16:37:00;8.10;99.90
26326;DHT22;14032;52.510;7.342;2023-03-12T16:39:25;8.10;99.90
26326;DHT22;14032;52.510;7.342;2023-03-12T16:41:54;8.10;99.90
26326;DHT22;14032;52.510;7.342;2023-03-12T16:44:19;8.10;99.90
26326;DHT22;14032;52.510;7.342;2023-03-12T16:46:45;8.10;99.90
26326;DHT22;14032;52.510;7.342;2023-03-12T16:49:12;8.00;99.90
26326;DHT22;14032;52.510;7.342;2023-03-12T16:51:38;8.10;99.90
26326;DHT22;14032;52.510;7.342;2023-03-12T16:54:04;8.00;99.90
26326;DHT22;14032;52.510;7.342;2023-03-12T16:56:29;8.00;99.90
26326;DHT22;14032;52.510;7.342;2023-03-12T16:59:03;8.00;99.90
26326;DHT22;14032;52.510;7.342;2023-03-12T17:01:29;8.00;99.90
26326;DHT22;14032;52.510;7.342;2023-03-12T17:03:55;8.00;99.90
26326;DHT22;14032;52.510;7.342;2023-03-12T17:06:22;8.00;99.90
26326;DHT22;14032;52.510;7.342;2023-03-12T17:08:48;8.00;99.90
26326;DHT22;14032;52.510;7.342;2023-03-12T17:11:18;8.00;99.90
26326;DHT22;14032;52.510;7.342;2023-03-12T17:13:48;8.10;99.90
26326;DHT22;14032;52.510;7.342;2023-03-12T17:16:14;8.10;99.90
26326;DHT22;14032;52.510;7.342;2023-03-12T17:18:40;8.20;99.90
26326;DHT22;14032;52.510;7.342;2023-03-12T17:21:06;8.00;99.90
26326;DHT22;14032;52.510;7.342;2023-03-12T17:23:31;8.00;99.90
26326;DHT22;14032;52.510;7.342;2023-03-12T17:25:56;8.00;99.90
26326;DHT22;14032;52.510;7.342;2023-03-12T17:28:23;8.00;99.90
26326;DHT22;14032;52.510;7.342;2023-03-12T17:30:49;7.90;99.90
26326;DHT22;14032;52.510;7.342;2023-03-12T17:33:15;7.90;99.90
26326;DHT22;14032;52.510;7.342;2023-03-12T17:35:41;7.90;99.90
26326;DHT22;14032;52.510;7.342;2023-03-12T17:38:07;7.90;99.90
26326;DHT22;14032;52.510;7.342;2023-03-12T17:40:32;7.90;99.90
26326;DHT22;14032;52.510;7.342;2023-03-12T17:42:59;7.90;99.90